Time;durP1;ratioP1;P1;durP2;ratioP2;P2;SDS_P1;SDS_P2;PMS_P1;PMS_P2;Temp;Humidity;BMP_temperature;BMP_pressure;BME280_temperature;BME280_humidity;BME280_pressure;Samples;Min_cycle;Max_cycle;Signal;HPM_P1;HPM_P2
2023/10/11 00:00:37;;;;;;;1.50;0.80;;;;;;;13.47;44.64;102068.84;5026085;28;20394;-84
2023/10/11 00:03:17;;;;;;;1.17;0.60;;;;;;;13.37;44.95;102068.97;5042533;28;20497;-85
2023/10/11 00:05:45;;;;;;;1.98;1.13;;;;;;;13.36;44.93;102069.94;5027263;28;20420;-84
2023/10/11 00:08:13;;;;;;;1.85;0.82;;;;;;;13.49;44.60;102090.88;5042688;28;20386;-84
2023/10/11 00:10:47;;;;;;;1.50;0.77;;;;;;;13.38;44.64;102089.28;5027252;28;20467;-84
2023/10/11 00:13:35;;;;;;;1.52;0.80;;;;;;;13.26;44.53;102088.66;5026055;28;20761;-85
2023/10/11 00:16:07;;;;;;;1.38;0.60;;;;;;;13.29;44.38;102096.34;5042725;28;20397;-84
2023/10/11 00:18:35;;;;;;;2.63;1.00;;;;;;;13.11;44.44;102095.53;5026242;28;20405;-84
2023/10/11 00:21:10;;;;;;;1.90;0.75;;;;;;;13.02;44.64;102097.28;5009444;28;20805;-85
2023/10/11 00:23:39;;;;;;;3.33;1.02;;;;;;;12.96;44.75;102095.22;5029945;28;20406;-83
2023/10/11 00:26:06;;;;;;;1.70;1.00;;;;;;;12.95;44.54;102096.22;5027799;28;20398;-84
2023/10/11 00:28:33;;;;;;;1.67;0.95;;;;;;;12.93;44.26;102082.22;5041938;28;20395;-83
2023/10/11 00:31:01;;;;;;;2.28;0.90;;;;;;;12.97;44.29;102095.06;5027565;28;20382;-80
2023/10/11 00:33:31;;;;;;;2.73;1.70;;;;;;;12.95;44.13;102086.41;5026672;28;20749;-81
2023/10/11 00:36:01;;;;;;;1.85;0.82;;;;;;;12.96;44.01;102080.09;5027374;28;20481;-80
2023/10/11 00:38:31;;;;;;;2.65;1.08;;;;;;;12.88;43.81;102084.50;5028949;28;20394;-78
2023/10/11 00:41:06;;;;;;;2.42;1.05;;;;;;;12.94;43.63;102091.88;5030090;28;20386;-78
2023/10/11 00:43:37;;;;;;;2.40;0.82;;;;;;;12.81;43.63;102097.56;5029472;28;20459;-79
2023/10/11 00:46:13;;;;;;;1.70;0.65;;;;;;;12.99;43.35;102097.56;5031473;28;20379;-82
2023/10/11 00:48:56;;;;;;;2.45;1.05;;;;;;;12.97;43.33;102096.91;5028788;28;20765;-80
2023/10/11 00:51:36;;;;;;;2.00;0.77;;;;;;;12.93;43.25;102101.69;5030597;28;20391;-81
2023/10/11 00:54:13;;;;;;;1.70;0.60;;;;;;;12.93;43.06;102099.03;5029320;28;20390;-81
2023/10/11 00:56:43;;;;;;;1.60;0.63;;;;;;;12.91;43.24;102100.16;5029274;28;20390;-79
2023/10/11 00:59:15;;;;;;;1.52;0.65;;;;;;;12.88;42.99;102109.28;5030701;28;20386;-79
2023/10/11 01:01:45;;;;;;;1.80;0.77;;;;;;;12.88;42.85;102114.59;5030555;28;20405;-81
2023/10/11 01:04:12;;;;;;;2.28;0.90;;;;;;;12.90;42.90;102111.78;5045665;28;20413;-79
2023/10/11 01:06:39;;;;;;;1.90;0.85;;;;;;;12.92;42.62;102115.97;5029978;28;20382;-80
2023/10/11 01:09:40;;;;;;;1.65;0.65;;;;;;;12.85;42.51;102130.03;5030581;28;20391;-79
2023/10/11 01:11:59;;;;;;;1.65;0.70;;;;;;;12.82;42.63;102141.81;5027102;28;20398;-80
2023/10/11 01:14:25;;;;;;;1.90;0.70;;;;;;;12.72;42.71;102135.72;5030274;28;20873;-80
2023/10/11 01:16:53;;;;;;;1.52;0.60;;;;;;;12.79;42.62;102136.78;5029075;28;20394;-80
2023/10/11 01:19:19;;;;;;;1.77;0.68;;;;;;;12.73;42.61;102142.69;5029642;28;20371;-79
2023/10/11 01:21:51;;;;;;;1.70;0.63;;;;;;;12.62;42.58;102147.25;5030203;28;20476;-79
2023/10/11 01:24:41;;;;;;;1.57;0.70;;;;;;;12.50;42.93;102136.97;5030064;28;20851;-81
2023/10/11 01:27:06;;;;;;;1.27;0.55;;;;;;;12.40;43.04;102153.78;5029236;28;20406;-80
2023/10/11 01:29:33;;;;;;;1.20;0.60;;;;;;;12.52;43.13;102158.94;5029972;28;20417;-80
2023/10/11 01:31:59;;;;;;;1.20;0.57;;;;;;;12.56;42.95;102166.44;5045149;28;20861;-81
2023/10/11 01:34:32;;;;;;;1.42;0.60;;;;;;;12.56;43.21;102165.63;5029937;28;20384;-82
2023/10/11 01:36:57;;;;;;;1.47;0.90;;;;;;;12.62;42.89;102175.66;5045148;28;20394;-83
2023/10/11 01:39:23;;;;;;;0.73;0.40;;;;;;;12.60;43.14;102178.50;5028616;28;20437;-82
2023/10/11 01:41:58;;;;;;;1.58;0.88;;;;;;;12.61;42.94;102176.66;5029790;28;20469;-81
2023/10/11 01:44:29;;;;;;;1.33;0.60;;;;;;;12.51;42.86;102170.53;5044716;28;20480;-81
2023/10/11 01:46:54;;;;;;;0.95;0.50;;;;;;;12.55;42.70;102187.88;5030000;28;20383;-79
2023/10/11 01:49:22;;;;;;;2.00;1.10;;;;;;;12.47;42.77;102199.25;5028378;28;20888;-81
2023/10/11 01:51:52;;;;;;;1.55;0.70;;;;;;;12.51;42.79;102187.31;5029617;28;20448;-80
2023/10/11 01:54:22;;;;;;;1.50;0.70;;;;;;;12.62;42.65;102192.47;5029773;28;20461;-82
2023/10/11 01:56:56;;;;;;;1.03;0.53;;;;;;;12.70;42.57;102183.75;5029690;28;20388;-80
2023/10/11 01:59:22;;;;;;;1.13;0.50;;;;;;;12.86;42.48;102200.91;5028023;28;20866;-81
2023/10/11 02:01:58;;;;;;;1.60;0.70;;;;;;;12.92;42.29;102216.28;5029735;28;20420;-79
2023/10/11 02:04:25;;;;;;;1.83;0.73;;;;;;;12.95;42.31;102216.81;5029613;28;20386;-77
2023/10/11 02:06:51;;;;;;;1.85;0.70;;;;;;;13.00;42.28;102214.56;5029915;28;20422;-79
2023/10/11 02:09:20;;;;;;;1.10;0.50;;;;;;;13.00;42.32;102222.53;5036612;22;20961;-80
2023/10/11 02:11:48;;;;;;;1.40;0.73;;;;;;;13.03;42.25;102224.06;5009533;28;20454;-81
2023/10/11 02:14:14;;;;;;;1.13;0.52;;;;;;;13.10;42.30;102224.31;5009882;28;20376;-79
2023/10/11 02:16:39;;;;;;;1.42;0.57;;;;;;;13.08;42.11;102221.78;5024785;28;20903;-81
2023/10/11 02:19:05;;;;;;;1.75;0.65;;;;;;;13.05;42.24;102230.06;5023819;28;20404;-79
2023/10/11 02:21:30;;;;;;;1.20;0.60;;;;;;;13.04;42.24;102222.25;5006976;28;20478;-78
2023/10/11 02:23:57;;;;;;;1.50;0.77;;;;;;;13.08;42.28;102229.78;5009244;28;20407;-79
2023/10/11 02:26:34;;;;;;;0.85;0.40;;;;;;;13.03;42.34;102220.56;5007952;28;20446;-79
2023/10/11 02:29:14;;;;;;;1.40;0.70;;;;;;;13.03;42.11;102225.88;5011013;28;20384;-78
2023/10/11 02:31:40;;;;;;;0.85;0.40;;;;;;;13.11;42.32;102223.31;5011157;28;20391;-79
2023/10/11 02:34:15;;;;;;;1.00;0.50;;;;;;;13.12;42.14;102215.16;5009821;28;20388;-78
2023/10/11 02:36:44;;;;;;;1.10;0.50;;;;;;;13.22;42.06;102201.81;5025683;28;20412;-78
2023/10/11 02:39:17;;;;;;;1.20;0.57;;;;;;;13.26;41.84;102203.16;5009978;28;20810;-80
2023/10/11 02:41:47;;;;;;;0.88;0.40;;;;;;;13.30;41.79;102201.03;5009770;28;21037;-81
2023/10/11 02:44:13;;;;;;;0.90;0.50;;;;;;;13.29;41.61;102202.88;5025154;28;20435;-80
2023/10/11 02:46:43;;;;;;;1.30;0.60;;;;;;;13.28;41.77;102206.50;5007660;28;20887;-81
2023/10/11 02:49:21;;;;;;;1.33;0.55;;;;;;;13.27;41.75;102217.31;5010197;28;20467;-80
2023/10/11 02:51:57;;;;;;;1.02;0.40;;;;;;;13.22;41.87;102220.44;5006991;28;20400;-81
2023/10/11 02:54:40;;;;;;;0.88;0.47;;;;;;;13.27;41.89;102220.84;5011371;28;20395;-82
2023/10/11 02:57:18;;;;;;;1.05;0.50;;;;;;;13.22;42.13;102208.94;5008930;28;20388;-81
2023/10/11 02:59:44;;;;;;;0.95;0.47;;;;;;;13.27;41.79;102215.50;5009073;28;20387;-80
2023/10/11 03:02:15;;;;;;;1.00;0.52;;;;;;;13.14;42.08;102223.00;5009228;28;20465;-81
2023/10/11 03:04:41;;;;;;;1.10;0.50;;;;;;;12.97;42.14;102220.16;5008669;28;20396;-82
2023/10/11 03:07:21;;;;;;;0.90;0.40;;;;;;;12.82;42.18;102226.97;5009952;28;20388;-81
2023/10/11 03:09:47;;;;;;;1.20;0.68;;;;;;;12.69;42.78;102234.44;5008277;28;20416;-82
2023/10/11 03:12:24;;;;;;;0.90;0.40;;;;;;;12.60;42.76;102231.69;5009938;28;20389;-81
2023/10/11 03:14:54;;;;;;;1.10;0.53;;;;;;;12.65;42.70;102239.22;5008885;28;20561;-81
2023/10/11 03:17:23;;;;;;;0.88;0.43;;;;;;;12.75;42.61;102245.34;5009594;28;20388;-80
2023/10/11 03:19:49;;;;;;;0.90;0.43;;;;;;;12.80;42.61;102236.91;5008337;28;20503;-80
2023/10/11 03:22:21;;;;;;;1.30;0.57;;;;;;;12.76;42.50;102225.72;5008600;28;20462;-81
2023/10/11 03:25:12;;;;;;;0.80;0.47;;;;;;;12.75;42.58;102234.72;5010458;28;20388;-80
2023/10/11 03:27:49;;;;;;;0.52;0.30;;;;;;;12.60;42.20;102245.00;5010504;28;20414;-78
2023/10/11 03:30:15;;;;;;;0.60;0.30;;;;;;;12.53;42.76;102256.34;5010607;28;20384;-80
2023/10/11 03:32:44;;;;;;;0.60;0.30;;;;;;;12.43;42.94;102262.53;5025744;28;20534;-81
2023/10/11 03:35:10;;;;;;;0.80;0.50;;;;;;;12.37;42.98;102265.78;5010191;28;20446;-77
2023/10/11 03:37:40;;;;;;;0.87;0.40;;;;;;;12.29;43.10;102255.00;5008813;28;20392;-78
2023/10/11 03:40:26;;;;;;;0.80;0.40;;;;;;;12.20;42.94;102264.69;5024626;28;20483;-78
2023/10/11 03:42:59;;;;;;;1.08;0.55;;;;;;;12.17;43.06;102262.31;5009652;28;20411;-79
2023/10/11 03:45:27;;;;;;;2.10;0.80;;;;;;;12.23;43.09;102251.09;5008646;28;20410;-78
2023/10/11 03:47:58;;;;;;;0.82;0.30;;;;;;;12.27;42.90;102249.00;5025260;28;20395;-77
2023/10/11 03:50:34;;;;;;;1.00;0.50;;;;;;;12.30;42.95;102253.19;5010300;28;20467;-79
2023/10/11 03:53:16;;;;;;;0.85;0.40;;;;;;;12.28;42.98;102250.69;5008404;28;20827;-80
2023/10/11 03:55:47;;;;;;;1.17;0.40;;;;;;;12.18;43.09;102240.06;5009937;28;20811;-80
2023/10/11 04:03:59;;;;;;;2.08;0.70;;;;;;;12.26;42.91;102243.81;4968284;28;20430;-78
2023/10/11 04:06:25;;;;;;;1.30;0.60;;;;;;;12.03;43.25;102239.66;5001033;28;20396;-80
2023/10/11 04:08:55;;;;;;;1.40;0.90;;;;;;;11.98;43.60;102251.72;5025116;28;20412;-78
2023/10/11 04:14:14;;;;;;;1.30;0.50;;;;;;;11.76;44.15;102255.47;5013335;28;20449;-76
2023/10/11 04:16:44;;;;;;;1.60;0.60;;;;;;;11.81;44.17;102248.75;5012009;28;20384;-79
2023/10/11 04:19:10;;;;;;;1.58;0.60;;;;;;;11.75;44.38;102253.78;5012197;28;20410;-79
2023/10/11 04:24:22;;;;;;;1.40;0.65;;;;;;;11.85;44.11;102247.50;5013172;28;20412;-78
2023/10/11 04:26:58;;;;;;;1.03;0.50;;;;;;;11.98;43.78;102251.72;5012685;28;20412;-77
2023/10/11 04:29:31;;;;;;;0.98;0.45;;;;;;;11.98;43.72;102257.03;5013693;28;20478;-78
2023/10/11 04:34:32;;;;;;;1.55;1.08;;;;;;;11.76;44.46;102261.63;5013802;28;20433;-78
2023/10/11 04:37:07;;;;;;;1.20;0.47;;;;;;;11.64;44.85;102255.59;5014072;28;20392;-80
2023/10/11 04:39:49;;;;;;;0.98;0.50;;;;;;;11.52;45.08;102254.03;5029506;28;20402;-80
2023/10/11 04:42:19;;;;;;;0.73;0.47;;;;;;;11.47;45.27;102259.78;5013715;28;20396;-81
2023/10/11 04:44:54;;;;;;;0.53;0.50;;;;;;;11.41;45.66;102262.97;5012537;28;20384;-78
2023/10/11 04:47:23;;;;;;;0.57;0.40;;;;;;;11.42;45.59;102269.13;5015028;28;20928;-77
2023/10/11 04:49:52;;;;;;;0.60;0.30;;;;;;;11.33;45.82;102276.09;5030187;28;20406;-78
2023/10/11 04:52:26;;;;;;;0.88;0.40;;;;;;;11.21;46.26;102288.63;5030720;28;21018;-79
2023/10/11 04:55:12;;;;;;;1.25;0.55;;;;;;;11.03;46.97;102298.22;5030561;28;20540;-79
2023/10/11 04:58:04;;;;;;;0.50;0.40;;;;;;;10.76;47.65;102293.50;5029428;28;20497;-79
2023/10/11 05:00:43;;;;;;;1.20;0.93;;;;;;;10.70;47.83;102308.13;5029564;28;20418;-80
2023/10/11 05:03:12;;;;;;;0.30;0.30;;;;;;;10.78;47.64;102288.91;5015182;28;20418;-80
2023/10/11 05:05:41;;;;;;;0.30;0.22;;;;;;;10.99;47.44;102280.91;5013647;28;20390;-79
2023/10/11 05:08:20;;;;;;;0.50;0.40;;;;;;;11.14;47.24;102299.94;5029801;28;20464;-79
2023/10/11 05:10:50;;;;;;;0.30;0.30;;;;;;;11.18;47.03;102291.59;5028751;28;20481;-80
2023/10/11 05:13:19;;;;;;;0.30;0.30;;;;;;;11.23;46.97;102296.47;5012161;28;20446;-79
2023/10/11 05:16:06;;;;;;;0.60;0.40;;;;;;;11.09;47.51;102306.50;5011911;28;20380;-79
2023/10/11 05:18:38;;;;;;;0.20;0.20;;;;;;;11.03;47.86;102316.78;5012405;28;20878;-79
2023/10/11 05:21:14;;;;;;;0.40;0.30;;;;;;;10.93;47.96;102314.13;5010711;28;20396;-79
2023/10/11 05:23:52;;;;;;;0.60;0.60;;;;;;;10.77;48.59;102337.59;5010687;28;20411;-80
2023/10/11 05:29:23;;;;;;;0.60;0.60;;;;;;;10.56;49.40;102350.91;5011827;28;20923;-79
2023/10/11 05:32:20;;;;;;;0.65;0.55;;;;;;;10.46;49.62;102341.06;5027353;28;20388;-79
2023/10/11 05:34:50;;;;;;;0.30;0.30;;;;;;;10.64;49.27;102345.78;5011954;28;20407;-79
2023/10/11 05:51:00;;;;;;;0.47;0.30;;;;;;;11.59;47.13;102366.72;5011684;28;20415;-79
2023/10/11 05:53:26;;;;;;;0.67;0.43;;;;;;;11.65;46.62;102373.31;5010297;28;20770;-80
2023/10/11 05:55:58;;;;;;;0.47;0.47;;;;;;;11.69;46.92;102368.59;5010550;28;20403;-80
2023/10/11 05:58:24;;;;;;;0.30;0.22;;;;;;;11.82;46.53;102375.28;5008902;28;20384;-78
2023/10/11 06:00:53;;;;;;;0.47;0.40;;;;;;;11.95;45.99;102377.72;5012595;28;20412;-79
2023/10/11 06:03:24;;;;;;;0.50;0.40;;;;;;;12.10;46.05;102370.19;5020364;28;20446;-80
2023/10/11 06:05:51;;;;;;;1.20;0.50;;;;;;;12.34;45.71;102366.28;5010577;28;20423;-80
2023/10/11 06:08:16;;;;;;;0.98;0.40;;;;;;;12.60;45.37;102367.38;5009401;28;20523;-80
2023/10/11 06:10:44;;;;;;;0.77;0.47;;;;;;;12.64;45.13;102367.94;5009260;28;20471;-80
2023/10/11 06:13:14;;;;;;;0.20;0.20;;;;;;;12.85;45.07;102372.22;5009144;28;20399;-80
2023/10/11 06:15:58;;;;;;;0.20;0.20;;;;;;;12.97;44.29;102365.75;5008964;28;20892;-81
2023/10/11 06:18:55;;;;;;;0.38;0.30;;;;;;;12.87;44.59;102379.06;5009152;28;20396;-84
2023/10/11 06:21:30;;;;;;;0.28;0.28;;;;;;;13.00;44.36;102370.78;5008727;28;20392;-80
2023/10/11 06:24:21;;;;;;;0.20;0.20;;;;;;;13.09;43.98;102380.56;5012406;28;20458;-80
2023/10/11 06:29:22;;;;;;;0.20;0.20;;;;;;;13.34;43.76;102375.56;5010277;28;20399;-82
2023/10/11 06:31:55;;;;;;;0.30;0.25;;;;;;;13.48;43.79;102374.25;5011367;28;20871;-79
2023/10/11 06:34:25;;;;;;;0.20;0.20;;;;;;;13.56;43.32;102379.69;5013207;28;20450;-82
2023/10/11 06:36:53;;;;;;;0.20;0.20;;;;;;;13.51;42.83;102374.78;5011708;28;20491;-86
2023/10/11 06:42:24;;;;;;;0.30;0.30;;;;;;;13.79;42.84;102379.25;5011212;28;20419;-80
2023/10/11 06:44:57;;;;;;;0.30;0.30;;;;;;;13.92;42.53;102385.91;5011151;28;20384;-77
2023/10/11 06:47:27;;;;;;;0.10;0.10;;;;;;;14.03;42.53;102381.34;5011268;28;20446;-83
2023/10/11 06:49:55;;;;;;;0.10;0.10;;;;;;;14.10;42.34;102401.06;4994162;28;20486;-79
2023/10/11 06:52:25;;;;;;;0.20;0.20;;;;;;;14.12;41.91;102393.75;5011088;28;20894;-79
2023/10/11 06:55:39;;;;;;;0.20;0.20;;;;;;;14.27;41.84;102399.38;5009709;28;20443;-78
2023/10/11 06:58:09;;;;;;;0.20;0.20;;;;;;;14.31;41.33;102398.94;5003288;28;20458;-79
2023/10/11 07:00:45;;;;;;;0.40;0.40;;;;;;;14.41;40.68;102406.84;5009383;28;20403;-82
2023/10/11 07:05:49;;;;;;;0.60;0.60;;;;;;;14.57;39.98;102416.81;5011112;28;20436;-81
2023/10/11 07:08:18;;;;;;;0.30;0.30;;;;;;;14.60;39.44;102413.84;5009477;28;20510;-80
2023/10/11 07:10:46;;;;;;;0.17;0.17;;;;;;;14.73;39.14;102394.78;5011024;28;20527;-80
2023/10/11 07:13:13;;;;;;;0.20;0.20;;;;;;;14.81;39.10;102400.19;5010646;28;20388;-80
2023/10/11 07:15:42;;;;;;;0.30;0.30;;;;;;;14.93;39.05;102399.91;5009530;28;20467;-80
2023/10/11 07:18:25;;;;;;;0.30;0.27;;;;;;;14.99;38.90;102400.13;5025437;28;20419;-79
2023/10/11 07:21:13;;;;;;;1.73;0.80;;;;;;;15.10;38.71;102402.50;5025227;28;20411;-81
2023/10/11 07:26:23;;;;;;;0.20;0.20;;;;;;;15.04;37.76;102400.50;5009515;28;20396;-78
2023/10/11 07:28:53;;;;;;;0.30;0.30;;;;;;;15.12;37.25;102399.69;5010661;28;20916;-80
2023/10/11 07:31:32;;;;;;;0.20;0.20;;;;;;;15.13;37.09;102409.41;5009309;28;20458;-81
2023/10/11 07:33:59;;;;;;;0.20;0.20;;;;;;;15.14;36.81;102403.03;5025327;28;20384;-81
2023/10/11 07:36:25;;;;;;;0.30;0.30;;;;;;;15.23;36.88;102391.44;5010451;28;20476;-80
2023/10/11 07:39:14;;;;;;;0.23;0.23;;;;;;;15.27;36.78;102389.28;5010633;28;20907;-82
2023/10/11 07:41:42;;;;;;;0.20;0.20;;;;;;;15.42;36.84;102390.31;5010774;28;20388;-80
2023/10/11 07:44:08;;;;;;;0.20;0.20;;;;;;;15.53;36.49;102394.53;5025287;28;20482;-80
2023/10/11 07:46:37;;;;;;;0.38;0.38;;;;;;;15.53;36.52;102396.38;5009161;28;20463;-81
2023/10/11 07:49:04;;;;;;;0.20;0.20;;;;;;;15.61;36.87;102389.25;5024081;28;20415;-81
2023/10/11 07:51:35;;;;;;;0.30;0.30;;;;;;;15.73;36.75;102397.78;5009679;28;20463;-81
2023/10/11 07:54:06;;;;;;;0.30;0.30;;;;;;;15.83;36.45;102389.66;5008092;28;20396;-81
2023/10/11 07:56:38;;;;;;;0.33;0.30;;;;;;;15.89;36.46;102380.97;5009626;28;20954;-82
2023/10/11 07:59:16;;;;;;;0.20;0.10;;;;;;;16.01;35.86;102387.69;5010651;28;20383;-79
2023/10/11 08:01:45;;;;;;;0.20;0.20;;;;;;;16.01;35.50;102392.19;5009910;28;20384;-80
2023/10/11 08:04:12;;;;;;;0.20;0.20;;;;;;;16.10;35.73;102388.53;5010273;28;20409;-82
2023/10/11 08:06:40;;;;;;;0.20;0.20;;;;;;;16.22;35.88;102391.69;5008125;28;20491;-80
2023/10/11 08:09:06;;;;;;;0.20;0.20;;;;;;;16.26;36.02;102390.41;5010078;28;20914;-80
2023/10/11 08:14:21;;;;;;;0.30;0.30;;;;;;;16.32;36.02;102391.56;5012094;28;20442;-80
2023/10/11 08:16:49;;;;;;;0.20;0.20;;;;;;;16.34;36.27;102387.69;5036915;28;20462;-80
2023/10/11 08:19:15;;;;;;;0.40;0.40;;;;;;;16.43;35.50;102393.91;5009335;28;20396;-80
2023/10/11 08:21:41;;;;;;;0.40;0.40;;;;;;;16.50;35.23;102394.06;5008794;28;20399;-83
2023/10/11 08:24:15;;;;;;;0.20;0.10;;;;;;;16.39;35.01;102388.03;5011100;28;20415;-80
2023/10/11 08:26:44;;;;;;;0.63;0.63;;;;;;;16.23;34.61;102388.88;5010141;28;20398;-81
2023/10/11 08:29:27;;;;;;;0.20;0.20;;;;;;;16.30;34.57;102389.03;5012011;28;20426;-81
2023/10/11 08:32:06;;;;;;;0.20;0.20;;;;;;;16.54;34.72;102398.06;5013781;28;20388;-81
2023/10/11 08:34:39;;;;;;;0.20;0.20;;;;;;;16.56;34.41;102393.38;5010050;28;20384;-81
2023/10/11 08:37:07;;;;;;;0.20;0.20;;;;;;;16.56;34.44;102386.19;5016866;28;20391;-81
2023/10/11 08:39:41;;;;;;;0.30;0.30;;;;;;;16.64;34.54;102380.00;5014510;28;20871;-79
2023/10/11 08:42:11;;;;;;;0.30;0.30;;;;;;;16.74;34.49;102383.31;5010022;28;20404;-79
2023/10/11 08:44:40;;;;;;;0.20;0.20;;;;;;;16.79;34.70;102380.13;5008833;28;20408;-79
2023/10/11 08:47:06;;;;;;;0.40;0.40;;;;;;;16.87;34.88;102388.19;5009503;28;20388;-80
2023/10/11 08:49:41;;;;;;;0.20;0.20;;;;;;;16.97;34.79;102385.31;5025136;28;20907;-80
2023/10/11 08:52:06;;;;;;;0.82;0.70;;;;;;;17.05;34.61;102385.31;5009784;28;20456;-80
2023/10/11 08:54:33;;;;;;;0.23;0.23;;;;;;;17.03;34.21;102378.44;5008460;28;20412;-79
2023/10/11 08:56:58;;;;;;;0.20;0.20;;;;;;;17.12;34.55;102378.22;5008215;28;20407;-80
2023/10/11 08:59:30;;;;;;;0.27;0.27;;;;;;;17.22;34.50;102375.38;5009605;28;20384;-81
2023/10/11 09:02:07;;;;;;;0.70;0.50;;;;;;;17.28;34.55;102366.63;5013640;28;20821;-81
2023/10/11 09:04:55;;;;;;;0.20;0.20;;;;;;;17.48;34.26;102374.25;5013011;28;20471;-81
2023/10/11 09:07:36;;;;;;;0.22;0.22;;;;;;;17.50;33.84;102385.63;5012862;28;20392;-80
2023/10/11 09:10:21;;;;;;;0.20;0.20;;;;;;;17.47;34.02;102380.63;5028073;28;20472;-81
2023/10/11 09:12:56;;;;;;;0.17;0.17;;;;;;;17.35;33.65;102366.75;5013147;28;20403;-81
2023/10/11 09:15:22;;;;;;;0.35;0.35;;;;;;;17.13;33.37;102366.50;5012587;28;20384;-80
2023/10/11 09:17:50;;;;;;;0.70;0.70;;;;;;;17.23;33.52;102368.97;5011679;28;20400;-80
2023/10/11 09:20:17;;;;;;;0.20;0.20;;;;;;;17.44;33.70;102372.94;5012726;28;20442;-80
2023/10/11 09:22:47;;;;;;;0.20;0.20;;;;;;;17.60;34.18;102369.34;5011315;28;20408;-82
2023/10/11 09:25:21;;;;;;;0.20;0.20;;;;;;;17.69;33.76;102366.41;5028518;28;20750;-80
2023/10/11 09:27:50;;;;;;;0.20;0.20;;;;;;;17.68;33.26;102364.75;5012955;28;20388;-80
2023/10/11 09:30:20;;;;;;;0.10;0.10;;;;;;;17.76;33.55;102367.38;5011896;28;20427;-79
2023/10/11 09:32:51;;;;;;;0.17;0.17;;;;;;;17.78;33.37;102357.31;5012965;28;20467;-80
2023/10/11 09:35:29;;;;;;;0.30;0.30;;;;;;;17.81;33.13;102356.13;5012242;28;20400;-80
2023/10/11 09:37:59;;;;;;;0.20;0.20;;;;;;;17.77;32.98;102350.28;4995792;28;20403;-82
2023/10/11 09:40:34;;;;;;;0.90;0.90;;;;;;;17.84;33.41;102344.19;5012148;28;20391;-80
2023/10/11 09:43:01;;;;;;;0.30;0.30;;;;;;;18.09;33.23;102353.75;5012704;28;20399;-80
2023/10/11 09:45:43;;;;;;;0.20;0.20;;;;;;;18.18;33.07;102356.38;5012151;28;20376;-82
2023/10/11 09:48:12;;;;;;;0.20;0.20;;;;;;;18.19;32.73;102358.06;5027945;28;20384;-82
2023/10/11 09:50:41;;;;;;;0.17;0.17;;;;;;;18.21;33.12;102346.13;5029251;28;20415;-82
2023/10/11 09:53:13;;;;;;;0.17;0.17;;;;;;;18.25;33.30;102343.91;5014080;28;20483;-82
2023/10/11 09:55:52;;;;;;;0.10;0.10;;;;;;;18.21;32.80;102351.50;5015506;28;20411;-81
2023/10/11 09:58:28;;;;;;;0.10;0.10;;;;;;;18.26;32.89;102353.66;5014026;28;20398;-82
2023/10/11 10:01:51;;;;;;;0.50;0.50;;;;;;;18.40;33.06;102344.81;5013055;28;20903;-80
2023/10/11 10:04:20;;;;;;;0.10;0.10;;;;;;;18.54;32.42;102346.66;5029412;28;20410;-81
2023/10/11 10:07:12;;;;;;;0.15;0.15;;;;;;;18.60;32.49;102339.75;5029602;28;20379;-81
2023/10/11 10:09:59;;;;;;;0.50;0.50;;;;;;;18.64;31.74;102332.16;5010390;28;20423;-80
2023/10/11 10:12:31;;;;;;;0.10;0.10;;;;;;;18.64;31.62;102338.34;5011669;28;20907;-81
2023/10/11 10:15:20;;;;;;;0.10;0.10;;;;;;;18.75;31.76;102333.53;5012097;28;20384;-80
2023/10/11 10:18:00;;;;;;;0.20;0.20;;;;;;;18.91;31.92;102325.31;5010778;28;20404;-80
2023/10/11 10:20:49;;;;;;;0.20;0.20;;;;;;;18.96;32.25;102314.84;5012449;28;20383;-81
2023/10/11 10:23:40;;;;;;;0.20;0.20;;;;;;;18.98;32.29;102320.88;5011618;28;20526;-85
2023/10/11 10:26:11;;;;;;;0.10;0.10;;;;;;;19.12;32.24;102313.78;5012086;28;20871;-81
2023/10/11 10:28:57;;;;;;;0.40;0.40;;;;;;;19.14;32.12;102301.03;5011959;28;20974;-80
2023/10/11 10:31:24;;;;;;;0.77;0.30;;;;;;;19.16;32.15;102298.13;5016424;28;20384;-79
2023/10/11 10:34:04;;;;;;;0.10;0.10;;;;;;;19.23;32.50;102307.97;5011461;28;20416;-80
2023/10/11 10:36:31;;;;;;;0.10;0.10;;;;;;;19.29;31.61;102304.50;5010692;28;20744;-81
2023/10/11 10:41:36;;;;;;;0.30;0.30;;;;;;;19.28;32.00;102293.94;5011186;28;20407;-79
2023/10/11 10:44:17;;;;;;;0.10;0.10;;;;;;;19.38;31.59;102289.09;5011160;28;20416;-82
2023/10/11 10:46:50;;;;;;;0.20;0.20;;;;;;;19.39;31.51;102288.09;5011910;28;20398;-79
2023/10/11 10:49:20;;;;;;;0.50;0.50;;;;;;;19.48;31.43;102292.31;5011883;28;20959;-80
2023/10/11 10:51:53;;;;;;;0.10;0.10;;;;;;;19.57;31.32;102282.28;5012786;28;20395;-83
2023/10/11 10:54:23;;;;;;;0.10;0.10;;;;;;;19.58;31.05;102281.22;5012242;28;20396;-81
2023/10/11 10:56:53;;;;;;;0.40;0.40;;;;;;;19.65;31.17;102281.31;5011424;28;20411;-80
2023/10/11 10:59:20;;;;;;;0.10;0.10;;;;;;;19.68;31.33;102283.63;5010845;28;20921;-81
2023/10/11 11:01:53;;;;;;;0.20;0.20;;;;;;;19.75;31.61;102276.44;5011386;28;20474;-81
2023/10/11 11:04:29;;;;;;;0.20;0.20;;;;;;;19.77;31.78;102278.94;5010432;28;20435;-79
2023/10/11 11:06:56;;;;;;;0.30;0.30;;;;;;;19.62;30.96;102279.00;5011778;28;20427;-81
2023/10/11 11:09:26;;;;;;;0.20;0.20;;;;;;;19.64;30.97;102274.25;5010072;28;20408;-84
2023/10/11 11:11:55;;;;;;;0.10;0.10;;;;;;;19.65;31.15;102260.59;5011386;28;20391;-83
2023/10/11 11:14:25;;;;;;;0.20;0.20;;;;;;;19.72;31.49;102262.53;5009979;28;20494;-83
2023/10/11 11:17:10;;;;;;;0.70;0.40;;;;;;;19.79;30.95;102253.53;5011578;28;20396;-83
2023/10/11 11:19:36;;;;;;;1.10;0.30;;;;;;;19.85;31.16;102252.75;5010756;28;20411;-82
2023/10/11 11:22:11;;;;;;;0.90;0.40;;;;;;;20.00;31.11;102263.41;5010554;28;20384;-80
2023/10/11 11:24:52;;;;;;;0.10;0.10;;;;;;;20.09;30.86;102250.66;5009880;28;20412;-83
2023/10/11 11:27:29;;;;;;;0.20;0.20;;;;;;;20.08;30.21;102258.91;5005916;28;20455;-81
2023/10/11 11:30:04;;;;;;;0.20;0.20;;;;;;;19.93;30.00;102257.13;5010151;28;20388;-82
2023/10/11 11:32:55;;;;;;;0.20;0.20;;;;;;;19.95;30.15;102251.56;5011865;28;20388;-84
2023/10/11 11:35:33;;;;;;;0.30;0.30;;;;;;;19.81;29.90;102246.09;5010237;28;20814;-80
2023/10/11 11:38:05;;;;;;;0.15;0.15;;;;;;;19.89;29.98;102238.91;4992069;28;20388;-82
2023/10/11 11:40:38;;;;;;;0.20;0.20;;;;;;;20.03;30.07;102235.28;5010553;28;20388;-80
2023/10/11 11:43:08;;;;;;;0.10;0.10;;;;;;;20.08;30.14;102235.53;5010031;28;20447;-81
2023/10/11 11:45:35;;;;;;;0.20;0.20;;;;;;;20.11;30.19;102229.75;5005682;28;20465;-83
2023/10/11 11:48:07;;;;;;;0.28;0.28;;;;;;;20.13;30.25;102232.25;5016364;28;20403;-80
2023/10/11 11:50:34;;;;;;;0.10;0.10;;;;;;;20.25;30.57;102230.66;5000492;28;20384;-81
2023/10/11 11:53:01;;;;;;;0.30;0.30;;;;;;;20.33;30.68;102229.69;5006832;28;20416;-80
2023/10/11 11:55:27;;;;;;;0.10;0.10;;;;;;;20.35;30.84;102228.47;4995977;28;20405;-81
2023/10/11 11:57:59;;;;;;;0.10;0.10;;;;;;;20.35;30.79;102225.78;4989371;28;20425;-81
2023/10/11 12:03:04;;;;;;;0.10;0.10;;;;;;;20.38;30.41;102221.84;5008011;28;20984;-81
2023/10/11 12:05:42;;;;;;;0.20;0.20;;;;;;;20.46;30.24;102219.00;5008744;28;20444;-85
2023/10/11 12:08:18;;;;;;;0.70;0.60;;;;;;;20.50;30.15;102217.56;4993177;28;20387;-81
2023/10/11 12:10:47;;;;;;;0.15;0.15;;;;;;;20.44;30.25;102205.72;4978379;28;20400;-83
2023/10/11 12:13:22;;;;;;;0.30;0.30;;;;;;;20.55;30.45;102214.28;5008171;28;20388;-81
2023/10/11 12:15:54;;;;;;;0.15;0.15;;;;;;;20.58;30.26;102209.31;4977838;28;20411;-82
2023/10/11 12:18:22;;;;;;;0.10;0.10;;;;;;;20.58;30.36;102209.31;5007696;28;20392;-82
2023/10/11 12:20:47;;;;;;;0.80;0.30;;;;;;;20.60;30.05;102196.47;5008675;28;20791;-80
2023/10/11 12:23:13;;;;;;;0.30;0.30;;;;;;;20.65;30.89;102201.28;5009756;28;20420;-81
2023/10/11 12:25:39;;;;;;;0.28;0.28;;;;;;;20.69;30.63;102190.94;5008384;28;20411;-81
2023/10/11 12:28:06;;;;;;;0.20;0.20;;;;;;;20.75;30.36;102193.66;5008512;28;21161;-81
2023/10/11 12:30:37;;;;;;;0.13;0.13;;;;;;;20.84;30.23;102190.81;5005861;28;20393;-80
2023/10/11 12:33:06;;;;;;;0.40;0.30;;;;;;;20.99;30.37;102188.75;4990308;28;20401;-81
2023/10/11 12:35:42;;;;;;;0.10;0.10;;;;;;;20.99;29.97;102180.66;4993694;28;20547;-82
2023/10/11 12:38:12;;;;;;;0.40;0.30;;;;;;;20.87;29.82;102187.69;4994060;28;20421;-81